Time;durP1;ratioP1;P1;durP2;ratioP2;P2;SDS_P1;SDS_P2;PMS_P1;PMS_P2;Temp;Humidity;BMP_temperature;BMP_pressure;BME280_temperature;BME280_humidity;BME280_pressure;Samples;Min_cycle;Max_cycle;Signal;HPM_P1;HPM_P2
2022/06/14 00:00:55;;;;;;;8.68;4.65;;;;;;;18.92;100.00;98904.01;1757817;81;21558;-62
2022/06/14 00:03:26;;;;;;;9.33;5.40;;;;;;;18.85;100.00;98898.48;1762260;81;21033;-62
2022/06/14 00:05:54;;;;;;;9.83;5.40;;;;;;;18.77;100.00;98902.75;1748561;81;20944;-62
2022/06/14 00:08:21;;;;;;;6.87;5.25;;;;;;;18.68;100.00;98898.72;1758900;80;21021;-61
2022/06/14 00:10:47;;;;;;;7.85;5.40;;;;;;;18.61;100.00;98905.95;1764794;81;21520;-62
2022/06/14 00:13:15;;;;;;;8.13;5.33;;;;;;;18.54;100.00;98907.11;1750581;81;21637;-62
2022/06/14 00:15:42;;;;;;;11.12;5.60;;;;;;;18.49;100.00;98908.70;1762169;81;21371;-62
2022/06/14 00:18:10;;;;;;;8.83;5.42;;;;;;;18.47;100.00;98908.22;1747421;81;21329;-62
2022/06/14 00:20:37;;;;;;;8.40;5.22;;;;;;;18.39;100.00;98910.73;1753002;81;20989;-62
2022/06/14 00:23:04;;;;;;;8.30;5.30;;;;;;;18.33;100.00;98912.12;1761947;81;21646;-62
2022/06/14 00:25:38;;;;;;;6.50;5.15;;;;;;;18.26;100.00;98902.80;1741273;81;21032;-62
2022/06/14 00:28:06;;;;;;;10.63;5.50;;;;;;;18.19;100.00;98899.23;1722895;81;21068;-61
2022/06/14 00:30:32;;;;;;;6.60;4.97;;;;;;;18.14;100.00;98901.42;1737109;82;21484;-62
2022/06/14 00:32:59;;;;;;;6.40;5.17;;;;;;;18.11;100.00;98900.13;1728154;81;21053;-62
2022/06/14 00:35:26;;;;;;;6.50;5.17;;;;;;;18.12;100.00;98900.38;1758879;81;21504;-62
2022/06/14 00:37:52;;;;;;;8.23;5.55;;;;;;;18.13;100.00;98898.43;1728449;81;21041;-62
2022/06/14 00:40:23;;;;;;;7.35;5.67;;;;;;;18.10;100.00;98898.55;1746776;81;21026;-62
2022/06/14 00:42:50;;;;;;;8.80;6.05;;;;;;;18.08;100.00;98887.63;1744545;81;21038;-61
2022/06/14 00:45:28;;;;;;;7.53;6.03;;;;;;;18.05;100.00;98893.25;1740807;81;21084;-62
2022/06/14 00:48:10;;;;;;;9.80;6.12;;;;;;;18.02;100.00;98896.69;1725270;82;21072;-61
2022/06/14 00:50:48;;;;;;;8.58;5.97;;;;;;;18.03;100.00;98899.65;1745800;81;21430;-62
2022/06/14 00:53:26;;;;;;;7.58;6.08;;;;;;;18.05;100.00;98900.12;1766813;81;21078;-62
2022/06/14 00:55:55;;;;;;;;;;;;;;;18.07;100.00;98892.31;1750122;81;21056;-62
2022/06/14 00:58:29;;;;;;;10.28;6.12;;;;;;;18.04;100.00;98891.62;1744990;81;20138;-62
2022/06/14 01:01:04;;;;;;;7.10;6.37;;;;;;;17.92;100.00;98894.94;1758445;81;21506;-62
2022/06/14 01:03:38;;;;;;;7.95;6.35;;;;;;;17.87;100.00;98901.45;1764048;81;21033;-62
2022/06/14 01:06:11;;;;;;;8.53;6.03;;;;;;;17.83;100.00;98899.14;1766735;81;20983;-62
2022/06/14 01:08:52;;;;;;;7.90;6.20;;;;;;;17.82;100.00;98898.91;1720493;81;21064;-62
2022/06/14 01:11:30;;;;;;;10.48;6.35;;;;;;;17.82;100.00;98898.34;1752915;81;21916;-62
2022/06/14 01:13:56;;;;;;;6.92;6.25;;;;;;;17.79;100.00;98898.20;1733749;81;21548;-61
2022/06/14 01:16:23;;;;;;;8.98;6.58;;;;;;;17.73;100.00;98902.33;1753483;81;21012;-62
2022/06/14 01:18:49;;;;;;;;;;;;;;;17.68;100.00;98897.02;1737177;81;21080;-62
2022/06/14 01:21:15;;;;;;;10.30;5.72;;;;;;;17.66;100.00;98892.44;1761593;80;20108;-62
2022/06/14 01:23:43;;;;;;;7.47;5.60;;;;;;;17.61;100.00;98889.31;1767188;80;21506;-61
2022/06/14 01:26:16;;;;;;;7.03;6.03;;;;;;;17.62;100.00;98881.87;1762858;81;20984;-61
2022/06/14 01:28:46;;;;;;;6.45;5.85;;;;;;;17.62;100.00;98884.62;1764625;80;21524;-62
2022/06/14 01:31:13;;;;;;;6.47;5.80;;;;;;;17.55;100.00;98885.71;1764975;81;21292;-62
2022/06/14 01:33:48;;;;;;;7.22;5.97;;;;;;;17.49;100.00;98884.31;1768123;81;21039;-61
2022/06/14 01:36:30;;;;;;;8.30;5.80;;;;;;;17.46;100.00;98880.87;1759605;81;20955;-62
2022/06/14 01:38:58;;;;;;;8.45;5.65;;;;;;;17.46;100.00;98885.00;1756272;80;21633;-62
2022/06/14 01:42:11;;;;;;;6.53;5.75;;;;;;;17.45;100.00;98886.94;1767554;81;20958;-62
2022/06/14 01:45:04;;;;;;;9.43;5.80;;;;;;;17.43;100.00;98895.30;1756296;81;20996;-62
2022/06/14 01:48:19;;;;;;;9.78;6.10;;;;;;;17.33;100.00;98894.55;1764826;80;21070;-62
2022/06/14 01:54:17;;;;;;;8.23;5.78;;;;;;;17.24;100.00;98888.90;1680530;83;21044;-62
2022/06/14 01:57:04;;;;;;;7.40;5.37;;;;;;;17.24;100.00;98884.77;1761799;81;21040;-62
2022/06/14 01:59:53;;;;;;;9.37;5.70;;;;;;;17.23;100.00;98879.03;1765778;80;21048;-62
2022/06/14 02:02:28;;;;;;;10.23;5.72;;;;;;;17.19;100.00;98881.64;1761348;80;20977;-62
2022/06/14 02:05:19;;;;;;;8.78;6.12;;;;;;;17.13;100.00;98880.81;1759144;81;21042;-62
2022/06/14 02:07:57;;;;;;;7.78;5.83;;;;;;;17.09;100.00;98882.62;1767351;81;21611;-62
2022/06/14 02:10:30;;;;;;;6.60;5.15;;;;;;;17.07;100.00;98878.84;1761045;81;21021;-62
2022/06/14 02:13:20;;;;;;;6.45;5.40;;;;;;;17.09;100.00;98879.87;1757684;81;21098;-62
2022/06/14 02:16:05;;;;;;;7.12;5.65;;;;;;;17.13;100.00;98889.88;1767335;81;21061;-62
2022/06/14 02:18:47;;;;;;;7.62;6.28;;;;;;;17.14;100.00;98880.48;1764068;80;21041;-60
2022/06/14 02:21:29;;;;;;;7.20;5.65;;;;;;;17.14;100.00;98883.80;1757168;81;20983;-62
2022/06/14 02:24:13;;;;;;;7.60;6.35;;;;;;;17.15;100.00;98879.33;1758663;81;21016;-62
2022/06/14 02:26:50;;;;;;;5.97;5.37;;;;;;;17.21;100.00;98877.20;1761601;81;20978;-62
2022/06/14 02:29:29;;;;;;;7.50;5.97;;;;;;;17.25;100.00;98876.17;1749004;81;21085;-62
2022/06/14 02:32:07;;;;;;;7.80;5.60;;;;;;;17.29;100.00;98870.23;1752866;81;21526;-62
2022/06/14 02:34:40;;;;;;;10.65;5.70;;;;;;;17.24;100.00;98864.14;1747078;81;21855;-62
2022/06/14 02:37:14;;;;;;;6.60;5.67;;;;;;;17.18;100.00;98869.02;1758574;81;20995;-62
2022/06/14 02:39:48;;;;;;;6.25;5.20;;;;;;;17.19;100.00;98862.95;1756930;81;21592;-62
2022/06/14 02:42:36;;;;;;;8.25;5.62;;;;;;;17.25;100.00;98861.04;1767698;80;21000;-61
2022/06/14 02:45:21;;;;;;;5.60;4.75;;;;;;;17.34;100.00;98854.91;1757849;81;21043;-61
2022/06/14 02:48:12;;;;;;;6.95;5.30;;;;;;;17.43;100.00;98849.91;1753955;81;21040;-61
2022/06/14 02:50:43;;;;;;;7.12;5.75;;;;;;;17.46;100.00;98843.16;1750737;81;20992;-61
2022/06/14 02:53:27;;;;;;;6.53;5.53;;;;;;;17.52;100.00;98843.73;1764284;81;20984;-62
2022/06/14 02:56:15;;;;;;;7.55;5.42;;;;;;;17.60;100.00;98849.77;1752260;81;21055;-62
2022/06/14 02:58:58;;;;;;;9.03;5.40;;;;;;;17.72;100.00;98841.53;1742766;81;21068;-61
2022/06/14 03:01:35;;;;;;;8.15;5.50;;;;;;;17.86;100.00;98852.47;1762005;81;21748;-62
2022/06/14 03:04:14;;;;;;;8.08;6.08;;;;;;;17.95;100.00;98877.16;1756445;81;21567;-62
2022/06/14 03:06:58;;;;;;;8.33;5.67;;;;;;;17.92;100.00;98903.20;1754839;81;21013;-62
2022/06/14 03:09:31;;;;;;;7.30;5.80;;;;;;;17.82;100.00;98903.84;1748591;81;21033;-62
2022/06/14 03:12:14;;;;;;;8.00;5.60;;;;;;;17.92;100.00;98913.64;1753382;81;21026;-61
2022/06/14 03:15:08;;;;;;;8.20;5.20;;;;;;;18.06;100.00;98905.88;1753535;81;21015;-62
2022/06/14 03:18:09;;;;;;;8.43;4.75;;;;;;;18.25;100.00;98907.50;1753545;81;21061;-63
2022/06/14 03:20:54;;;;;;;9.20;5.20;;;;;;;18.49;100.00;98918.34;1747433;81;21024;-61
2022/06/14 03:23:46;;;;;;;7.10;4.70;;;;;;;18.73;100.00;98908.73;1744874;80;21557;-62
2022/06/14 03:26:36;;;;;;;7.50;5.70;;;;;;;18.91;100.00;98910.66;1747041;82;21054;-61
2022/06/14 03:29:06;;;;;;;8.45;5.53;;;;;;;19.09;100.00;98907.89;1743426;82;21034;-63
2022/06/14 03:31:44;;;;;;;11.10;5.33;;;;;;;19.25;100.00;98915.08;1748566;81;21474;-62
2022/06/14 03:34:25;;;;;;;7.65;4.60;;;;;;;19.43;100.00;98903.22;1746577;80;21058;-62
2022/06/14 03:36:52;;;;;;;7.75;5.10;;;;;;;19.50;100.00;98902.05;1745031;81;20971;-62
2022/06/14 03:39:23;;;;;;;7.45;4.83;;;;;;;19.50;100.00;98900.67;1743277;82;21014;-62
2022/06/14 03:41:52;;;;;;;10.55;4.60;;;;;;;19.51;100.00;98909.19;1746420;81;21042;-62
2022/06/14 03:44:19;;;;;;;8.08;4.47;;;;;;;19.52;100.00;98918.27;1748203;81;21050;-63
2022/06/14 03:47:12;;;;;;;7.97;4.53;;;;;;;19.57;100.00;98922.15;1721839;82;21017;-63
2022/06/14 03:49:47;;;;;;;6.90;4.58;;;;;;;19.50;100.00;98932.98;1722473;82;21002;-62
2022/06/14 03:52:39;;;;;;;8.28;4.40;;;;;;;19.29;100.00;98947.73;1743185;80;21018;-63
2022/06/14 03:55:24;;;;;;;6.95;4.03;;;;;;;19.14;100.00;98942.92;1749462;80;21014;-63
2022/06/14 03:58:07;;;;;;;6.92;4.12;;;;;;;19.20;100.00;98958.08;1750014;82;21033;-63
2022/06/14 04:01:04;;;;;;;7.62;3.90;;;;;;;19.52;100.00;98977.02;1746525;80;21844;-61
2022/06/14 04:04:10;;;;;;;6.75;3.75;;;;;;;19.81;100.00;98953.23;1714148;81;21553;-62
2022/06/14 04:06:54;;;;;;;7.33;3.90;;;;;;;19.67;100.00;98974.11;1733220;82;21022;-66
2022/06/14 04:09:46;;;;;;;8.33;3.80;;;;;;;19.37;100.00;98984.06;1735999;82;21006;-66
2022/06/14 04:12:21;;;;;;;8.03;3.70;;;;;;;19.09;100.00;98989.27;1736744;80;21007;-62
2022/06/14 04:15:24;;;;;;;5.60;3.00;;;;;;;18.77;100.00;98997.88;1748977;81;21403;-62
2022/06/14 04:18:34;;;;;;;7.20;3.20;;;;;;;18.62;100.00;99015.08;1747146;81;21475;-62
2022/06/14 04:20:36;;;;;;;6.15;2.85;;;;;;;18.52;100.00;99025.16;1745791;81;21463;-63
2022/06/14 04:23:26;;;;;;;5.85;3.00;;;;;;;18.38;100.00;99028.20;1763503;80;21617;-63
2022/06/14 04:26:13;;;;;;;6.70;3.10;;;;;;;18.28;100.00;99039.05;1757920;81;21023;-63
2022/06/14 04:28:48;;;;;;;5.83;2.62;;;;;;;18.35;100.00;99059.97;1755535;81;21008;-63
2022/06/14 04:31:29;;;;;;;7.33;2.90;;;;;;;18.42;100.00;99060.83;1753490;81;21067;-62
2022/06/14 04:34:16;;;;;;;4.87;2.33;;;;;;;18.34;100.00;99062.52;1747503;81;21014;-62
2022/06/14 04:37:03;;;;;;;4.50;2.27;;;;;;;18.17;100.00;99062.69;1762365;81;21047;-62
2022/06/14 04:39:38;;;;;;;3.85;1.95;;;;;;;18.18;100.00;99058.77;1766807;80;21016;-62
2022/06/14 04:42:31;;;;;;;4.78;1.98;;;;;;;18.29;100.00;99056.39;1766688;81;20979;-63
2022/06/14 04:45:13;;;;;;;2.98;1.60;;;;;;;18.23;100.00;99050.88;1752139;81;20960;-63
2022/06/14 04:48:00;;;;;;;5.15;1.90;;;;;;;18.14;100.00;99055.06;1761623;81;21008;-62
2022/06/14 04:50:31;;;;;;;2.83;1.63;;;;;;;18.07;100.00;99065.83;1763190;81;21012;-63
2022/06/14 04:53:06;;;;;;;3.65;1.87;;;;;;;18.12;100.00;99075.84;1762637;80;21023;-64
2022/06/14 04:55:37;;;;;;;3.65;1.70;;;;;;;18.11;100.00;99078.35;1754518;81;21561;-65
2022/06/14 04:58:20;;;;;;;2.67;1.50;;;;;;;18.11;100.00;99071.47;1754185;81;21491;-65
2022/06/14 05:00:55;;;;;;;3.67;1.20;;;;;;;18.12;100.00;99071.14;1766283;81;21035;-65
2022/06/14 05:03:41;;;;;;;2.85;1.10;;;;;;;18.18;100.00;99067.59;1759274;81;21027;-64
2022/06/14 05:06:25;;;;;;;2.10;0.90;;;;;;;18.19;100.00;99079.66;1749818;81;20982;-63
2022/06/14 05:09:02;;;;;;;1.70;0.80;;;;;;;18.17;100.00;99091.61;1740786;81;21023;-64
2022/06/14 05:11:53;;;;;;;1.55;0.80;;;;;;;18.24;100.00;99098.76;1747209;82;20996;-65
2022/06/14 05:14:25;;;;;;;1.00;0.70;;;;;;;18.31;100.00;99101.77;1718549;81;21043;-66
2022/06/14 05:17:15;;;;;;;3.20;0.90;;;;;;;18.42;100.00;99096.65;1761263;81;20996;-64
2022/06/14 05:19:51;;;;;;;2.92;1.02;;;;;;;18.44;100.00;99112.83;1757873;81;21549;-63
2022/06/14 05:22:26;;;;;;;5.12;0.80;;;;;;;18.33;100.00;99115.20;1754058;81;21038;-63
2022/06/14 05:24:52;;;;;;;3.45;1.10;;;;;;;18.28;100.00;99114.82;1701674;81;21014;-65
2022/06/14 05:27:54;;;;;;;3.27;0.80;;;;;;;18.26;100.00;99119.06;1755604;81;21026;-64
2022/06/14 05:31:00;;;;;;;2.37;1.00;;;;;;;18.17;100.00;99143.95;1758957;81;21008;-64
2022/06/14 05:33:47;;;;;;;1.02;0.62;;;;;;;18.03;100.00;99146.13;1762360;81;21586;-66
2022/06/14 05:36:21;;;;;;;1.25;0.68;;;;;;;18.11;100.00;99134.81;1769970;81;21510;-66
2022/06/14 05:38:54;;;;;;;1.62;0.85;;;;;;;18.18;100.00;99137.27;1735102;81;21539;-66
2022/06/14 05:41:40;;;;;;;1.25;0.65;;;;;;;18.30;100.00;99158.58;1736983;82;21008;-66
2022/06/14 05:44:11;;;;;;;1.25;0.75;;;;;;;18.36;100.00;99152.52;1762893;80;21059;-67
2022/06/14 05:46:51;;;;;;;2.27;0.82;;;;;;;18.37;100.00;99166.55;1741554;82;21016;-68
2022/06/14 05:49:24;;;;;;;2.08;0.80;;;;;;;18.31;100.00;99158.26;1763834;81;21052;-67
2022/06/14 05:52:17;;;;;;;1.50;0.72;;;;;;;18.23;100.00;99172.89;1766597;81;21058;-64
2022/06/14 05:55:04;;;;;;;0.65;0.50;;;;;;;18.16;100.00;99182.83;1767254;81;21371;-66
2022/06/14 05:57:53;;;;;;;2.02;0.60;;;;;;;18.02;100.00;99196.05;1765724;81;21130;-64
2022/06/14 06:00:36;;;;;;;1.17;0.53;;;;;;;17.85;100.00;99215.64;1767477;81;21016;-64
2022/06/14 06:03:17;;;;;;;2.55;0.70;;;;;;;17.53;100.00;99239.67;1755636;81;21041;-64
2022/06/14 06:05:50;;;;;;;2.77;0.80;;;;;;;17.29;100.00;99244.33;1735655;82;21888;-63
2022/06/14 06:08:40;;;;;;;3.05;1.45;;;;;;;17.12;100.00;99233.38;1747646;81;20988;-65
2022/06/14 06:11:23;;;;;;;2.60;1.10;;;;;;;16.90;100.00;99223.94;1742650;82;21050;-65
2022/06/14 06:14:07;;;;;;;1.95;1.00;;;;;;;16.75;100.00;99224.47;1751105;81;21848;-63
2022/06/14 06:17:03;;;;;;;1.52;1.10;;;;;;;16.60;100.00;99231.81;1748707;81;21004;-66
2022/06/14 06:20:09;;;;;;;1.98;0.90;;;;;;;16.52;100.00;99238.89;1767378;81;21445;-66
2022/06/14 06:22:51;;;;;;;4.08;0.90;;;;;;;16.44;100.00;99248.74;1753458;81;21563;-68
2022/06/14 06:25:30;;;;;;;1.30;0.90;;;;;;;16.34;100.00;99247.69;1739609;81;21288;-66
2022/06/14 06:28:07;;;;;;;1.75;1.10;;;;;;;16.34;100.00;99247.69;1767226;80;21076;-67
2022/06/14 06:30:50;;;;;;;2.00;1.25;;;;;;;16.36;100.00;99246.81;1756221;81;21011;-67
2022/06/14 06:36:00;;;;;;;1.90;1.07;;;;;;;16.60;100.00;99242.81;1813730;78;22838;-66
2022/06/14 06:38:54;;;;;;;1.62;1.00;;;;;;;16.45;100.00;99244.06;1744305;81;21097;-66
2022/06/14 06:44:16;;;;;;;2.67;1.00;;;;;;;16.45;100.00;99281.15;1748333;81;21440;-67
2022/06/14 06:46:47;;;;;;;2.08;0.82;;;;;;;16.40;100.00;99286.22;1751659;81;20943;-69
2022/06/14 06:49:13;;;;;;;1.40;0.98;;;;;;;16.43;100.00;99299.34;1761807;81;21625;-69
2022/06/14 06:51:43;;;;;;;;;;;;;;;16.41;100.00;99304.89;1743781;81;20978;-68
2022/06/14 06:54:25;;;;;;;1.37;0.98;;;;;;;16.36;100.00;99304.50;1735502;81;20415;-69
2022/06/14 06:56:55;;;;;;;2.00;1.10;;;;;;;16.29;100.00;99317.08;1663943;83;21069;-69
2022/06/14 06:59:33;;;;;;;2.08;1.12;;;;;;;16.28;100.00;99323.13;1714974;83;21082;-68
2022/06/14 07:02:16;;;;;;;3.12;1.07;;;;;;;16.24;100.00;99315.28;1694750;83;21552;-67
2022/06/14 07:07:38;;;;;;;3.17;1.30;;;;;;;16.30;100.00;99317.30;1718967;83;21564;-65
2022/06/14 07:10:16;;;;;;;2.25;1.37;;;;;;;16.29;100.00;99319.27;1727042;83;21114;-69
2022/06/14 07:12:53;;;;;;;1.60;1.00;;;;;;;16.37;100.00;99321.77;1697971;83;21612;-68
2022/06/14 07:15:26;;;;;;;3.55;0.93;;;;;;;16.42;100.00;99314.20;1724824;83;21011;-67
2022/06/14 07:18:20;;;;;;;1.85;1.00;;;;;;;16.55;100.00;99313.80;1717009;83;21133;-69
2022/06/14 07:21:26;;;;;;;1.65;0.98;;;;;;;16.65;100.00;99307.23;1677549;84;21470;-68
2022/06/14 07:24:01;;;;;;;1.17;0.80;;;;;;;16.69;100.00;99318.62;1684917;84;21089;-66
2022/06/14 07:26:44;;;;;;;1.15;0.65;;;;;;;16.80;100.00;99320.48;1690749;84;20986;-69
2022/06/14 07:29:28;;;;;;;1.65;0.82;;;;;;;16.84;100.00;99313.22;1702783;83;21108;-69
2022/06/14 07:32:24;;;;;;;2.08;0.95;;;;;;;16.78;100.00;99310.39;1713167;83;21007;-67
2022/06/14 07:34:52;;;;;;;0.95;0.70;;;;;;;16.79;100.00;99319.67;1670747;85;21121;-68
2022/06/14 07:37:44;;;;;;;2.62;1.10;;;;;;;17.02;100.00;99319.52;1709279;84;21070;-69
2022/06/14 07:40:22;;;;;;;2.05;0.90;;;;;;;17.35;100.00;99317.33;1684951;84;21118;-65
2022/06/14 07:43:08;;;;;;;1.32;0.72;;;;;;;17.59;100.00;99323.69;1723774;80;21082;-68
2022/06/14 07:45:39;;;;;;;1.50;0.80;;;;;;;17.74;100.00;99320.98;1770594;80;21519;-67
2022/06/14 07:48:11;;;;;;;1.35;0.72;;;;;;;17.85;100.00;99325.78;1702567;83;21046;-67
2022/06/14 07:50:51;;;;;;;2.50;0.93;;;;;;;18.13;100.00;99330.30;1730471;80;21039;-68
2022/06/14 07:53:28;;;;;;;1.72;1.05;;;;;;;18.48;100.00;99324.59;1731199;81;21086;-67
2022/06/14 07:56:07;;;;;;;2.37;1.00;;;;;;;18.53;100.00;99320.31;1721513;82;21015;-68
2022/06/14 07:58:59;;;;;;;3.87;1.00;;;;;;;18.48;100.00;99330.92;1726963;82;21035;-68
2022/06/14 08:01:52;;;;;;;1.87;0.90;;;;;;;18.37;100.00;99333.82;1726538;82;21462;-68
2022/06/14 08:04:30;;;;;;;2.17;1.10;;;;;;;18.28;100.00;99328.94;1735024;82;21098;-69
2022/06/14 08:07:02;;;;;;;3.02;1.00;;;;;;;18.21;100.00;99340.45;1745717;82;21082;-70
2022/06/14 08:09:46;;;;;;;1.70;0.90;;;;;;;18.32;100.00;99345.83;1746288;82;21110;-70
2022/06/14 08:12:37;;;;;;;1.67;0.90;;;;;;;18.37;100.00;99333.82;1749159;82;21059;-69
2022/06/14 08:15:09;;;;;;;2.83;0.90;;;;;;;18.25;100.00;99336.47;1746658;82;21091;-69
2022/06/14 08:17:45;;;;;;;2.25;0.70;;;;;;;18.10;100.00;99344.75;1744741;82;21042;-68
2022/06/14 08:20:24;;;;;;;1.85;0.90;;;;;;;17.98;100.00;99344.62;1748251;82;21121;-68
2022/06/14 08:22:59;;;;;;;1.40;0.98;;;;;;;17.84;100.00;99346.77;1746564;82;21134;-67
2022/06/14 08:25:32;;;;;;;3.60;0.80;;;;;;;17.88;100.00;99360.13;1728022;82;21027;-69
2022/06/14 08:28:13;;;;;;;2.58;0.60;;;;;;;18.28;100.00;99357.88;1752447;82;21039;-69
2022/06/14 08:30:44;;;;;;;1.22;0.50;;;;;;;18.86;100.00;99355.10;1723199;81;21042;-69
2022/06/14 08:33:23;;;;;;;2.15;0.65;;;;;;;19.49;100.00;99349.56;1724150;82;21373;-67
2022/06/14 08:35:53;;;;;;;1.55;0.70;;;;;;;20.14;100.00;99350.06;1735613;82;21034;-66
2022/06/14 08:38:52;;;;;;;2.60;0.70;;;;;;;20.73;100.00;99343.50;1742294;82;20980;-68
2022/06/14 08:42:01;;;;;;;1.35;0.60;;;;;;;20.80;100.00;99344.52;1722879;83;21518;-68
2022/06/14 08:44:54;;;;;;;2.92;0.60;;;;;;;20.81;100.00;99352.25;1687570;85;21094;-70
2022/06/14 08:47:50;;;;;;;2.12;0.50;;;;;;;21.02;100.00;99355.66;1718830;83;20995;-67
2022/06/14 08:51:00;;;;;;;1.45;0.55;;;;;;;21.01;100.00;99360.95;1723271;83;21655;-69
2022/06/14 08:53:56;;;;;;;1.27;0.60;;;;;;;20.93;100.00;99367.45;1727939;82;21142;-69
2022/06/14 08:56:49;;;;;;;1.42;0.70;;;;;;;20.79;100.00;99365.64;1749001;82;21086;-68
2022/06/14 08:59:30;;;;;;;1.65;0.88;;;;;;;20.47;100.00;99370.16;1752470;82;21105;-70
2022/06/14 09:02:25;;;;;;;1.07;0.50;;;;;;;20.30;100.00;99374.50;1739586;81;21478;-70
2022/06/14 09:05:10;;;;;;;0.88;0.60;;;;;;;20.22;100.00;99365.16;1750747;82;21035;-68
2022/06/14 09:08:08;;;;;;;1.25;0.60;;;;;;;20.03;100.00;99369.61;1748593;82;21070;-69
2022/06/14 09:11:13;;;;;;;3.65;0.60;;;;;;;19.90;100.00;99363.27;1727558;82;21196;-68
2022/06/14 09:14:24;;;;;;;3.17;0.80;;;;;;;19.69;100.00;99368.05;1727463;82;21095;-69
2022/06/14 09:17:31;;;;;;;2.08;0.82;;;;;;;19.43;100.00;99362.78;1727533;82;21023;-68
2022/06/14 09:20:37;;;;;;;1.90;0.88;;;;;;;19.34;100.00;99365.57;1707910;82;21062;-69
2022/06/14 09:23:25;;;;;;;1.65;0.90;;;;;;;19.48;100.00;99367.29;1723127;82;21577;-68
2022/06/14 09:26:29;;;;;;;1.98;0.80;;;;;;;19.59;100.00;99363.74;1722798;83;21110;-68
2022/06/14 09:29:13;;;;;;;1.27;0.60;;;;;;;19.74;100.00;99365.05;1691936;84;21126;-68
2022/06/14 09:32:13;;;;;;;1.10;0.70;;;;;;;19.76;100.00;99376.59;1696329;83;21113;-67
2022/06/14 09:35:08;;;;;;;1.80;0.80;;;;;;;19.75;100.00;99368.87;1729757;82;21033;-70
2022/06/14 09:38:07;;;;;;;1.17;0.75;;;;;;;19.73;100.00;99373.91;1722816;82;21056;-68
2022/06/14 09:41:07;;;;;;;2.45;1.05;;;;;;;19.65;100.00;99375.40;1708520;82;21047;-69
2022/06/14 09:43:52;;;;;;;2.30;1.10;;;;;;;19.61;100.00;99374.45;1708392;82;21095;-70
2022/06/14 09:46:36;;;;;;;1.52;0.88;;;;;;;19.85;100.00;99369.81;1717228;82;21055;-70
2022/06/14 09:49:26;;;;;;;1.92;0.90;;;;;;;20.28;100.00;99365.77;1724139;82;21079;-67
2022/06/14 09:52:17;;;;;;;1.15;0.60;;;;;;;20.56;100.00;99361.73;1668776;84;21538;-67
2022/06/14 09:55:13;;;;;;;1.67;0.80;;;;;;;20.71;100.00;99362.41;1718656;82;21059;-70
2022/06/14 09:58:30;;;;;;;2.60;0.88;;;;;;;20.74;100.00;99363.91;1730129;82;21115;-67
2022/06/14 10:01:44;;;;;;;1.60;0.80;;;;;;;20.81;100.00;99359.16;1730969;82;21067;-68
2022/06/14 10:04:38;;;;;;;2.27;1.00;;;;;;;20.96;100.00;99354.88;1676076;82;21090;-70
2022/06/14 10:07:34;;;;;;;2.50;1.00;;;;;;;21.01;100.00;99362.95;1706913;84;21035;-68
2022/06/14 10:10:32;;;;;;;3.45;0.78;;;;;;;21.04;100.00;99351.98;1711975;82;21823;-68
2022/06/14 10:13:22;;;;;;;2.35;0.70;;;;;;;20.83;100.00;99350.73;1709478;82;21569;-66
2022/06/14 10:16:19;;;;;;;1.87;0.80;;;;;;;20.84;100.00;99352.93;1706776;82;21526;-67
2022/06/14 10:19:00;;;;;;;2.20;1.00;;;;;;;20.95;100.00;99349.91;1708842;82;21067;-71
2022/06/14 10:22:08;;;;;;;2.72;0.80;;;;;;;20.95;100.00;99354.06;1720301;82;21000;-68
2022/06/14 10:25:10;;;;;;;3.77;1.22;;;;;;;20.85;100.00;99349.02;1713753;82;21032;-69
2022/06/14 10:31:03;;;;;;;2.27;1.10;;;;;;;20.40;100.00;99359.44;1708763;82;21035;-69
2022/06/14 10:34:00;;;;;;;1.77;1.02;;;;;;;20.39;100.00;99358.63;1716301;82;21557;-68
2022/06/14 10:36:41;;;;;;;3.90;1.00;;;;;;;20.56;100.00;99339.03;1750236;81;21055;-67
2022/06/14 10:39:46;;;;;;;1.55;0.80;;;;;;;20.71;100.00;99345.24;1750668;82;21126;-68
2022/06/14 10:42:22;;;;;;;1.47;0.80;;;;;;;20.83;100.00;99350.73;1751165;82;21035;-69
2022/06/14 10:45:03;;;;;;;2.85;0.70;;;;;;;20.97;100.00;99340.70;1732242;82;21553;-70
2022/06/14 10:47:42;;;;;;;3.45;0.98;;;;;;;21.14;100.00;99339.06;1749462;82;21565;-69
2022/06/14 10:50:31;;;;;;;3.47;0.88;;;;;;;21.22;100.00;99333.94;1749512;82;21038;-67
2022/06/14 10:53:16;;;;;;;1.98;0.80;;;;;;;21.29;100.00;99330.59;1738668;82;21062;-67
2022/06/14 10:56:22;;;;;;;2.02;0.90;;;;;;;21.23;100.00;99324.48;1723055;82;21074;-67
2022/06/14 10:59:12;;;;;;;2.02;0.72;;;;;;;21.14;94.56;99322.45;1672424;85;21130;-67
2022/06/14 11:02:14;;;;;;;3.83;0.90;;;;;;;21.14;97.07;99332.14;1691416;85;21609;-68
2022/06/14 11:04:58;;;;;;;6.08;1.95;;;;;;;21.15;97.54;99326.81;1730013;82;21066;-67
2022/06/14 11:08:02;;;;;;;3.12;1.30;;;;;;;21.10;91.73;99332.61;1723880;82;21070;-69
2022/06/14 11:11:11;;;;;;;2.77;1.10;;;;;;;21.01;95.51;99333.89;1745409;82;21055;-67
2022/06/14 11:14:02;;;;;;;1.80;1.05;;;;;;;20.99;92.78;99324.55;1723080;83;21142;-68
2022/06/14 11:16:45;;;;;;;2.98;1.37;;;;;;;21.07;99.69;99331.09;1722459;83;21577;-67
2022/06/14 11:19:36;;;;;;;3.90;0.88;;;;;;;21.03;93.54;99335.72;1746978;82;22206;-67
2022/06/14 11:22:37;;;;;;;2.83;1.00;;;;;;;20.84;99.44;99327.45;1740832;82;21066;-69
2022/06/14 11:25:18;;;;;;;2.67;0.90;;;;;;;20.88;100.00;99316.50;1752986;82;21057;-69
2022/06/14 11:28:37;;;;;;;1.60;0.93;;;;;;;21.24;100.00;99322.53;1749469;82;21082;-69
2022/06/14 11:31:25;;;;;;;3.60;1.00;;;;;;;21.42;93.39;99313.34;1722024;82;21100;-68
2022/06/14 11:34:31;;;;;;;2.12;1.00;;;;;;;21.29;95.81;99325.84;1738774;82;21066;-69
2022/06/14 11:37:35;;;;;;;2.87;1.10;;;;;;;21.32;98.29;99322.96;1749240;81;21558;-69
2022/06/14 11:40:10;;;;;;;3.42;1.02;;;;;;;21.40;93.13;99328.13;1735770;82;21074;-68
2022/06/14 11:42:59;;;;;;;3.15;0.95;;;;;;;21.48;100.00;99319.64;1724606;82;21051;-67
2022/06/14 11:45:49;;;;;;;3.42;0.98;;;;;;;21.73;100.00;99317.55;1746683;82;21058;-70
2022/06/14 11:48:37;;;;;;;1.32;0.80;;;;;;;22.02;91.90;99321.89;1737048;82;21098;-70
2022/06/14 11:51:38;;;;;;;3.87;1.02;;;;;;;22.13;87.19;99305.75;1719560;83;21122;-67
2022/06/14 11:54:19;;;;;;;2.50;1.00;;;;;;;22.20;85.49;99314.83;1719617;83;21545;-67
2022/06/14 11:57:03;;;;;;;2.17;1.02;;;;;;;22.31;83.08;99305.61;1723454;82;21074;-66
2022/06/14 11:59:44;;;;;;;2.87;1.30;;;;;;;22.48;79.72;99314.70;1667937;83;21051;-66
2022/06/14 12:02:25;;;;;;;2.25;1.12;;;;;;;22.57;78.84;99315.29;1722206;82;21086;-66
2022/06/14 12:05:23;;;;;;;2.20;1.00;;;;;;;22.57;79.02;99318.06;1719696;83;21062;-70
2022/06/14 12:08:34;;;;;;;2.47;1.30;;;;;;;22.47;84.29;99315.85;1722346;82;21090;-68
2022/06/14 12:11:22;;;;;;;2.42;1.22;;;;;;;22.49;81.37;99317.70;1722044;82;21579;-67
2022/06/14 12:14:11;;;;;;;2.98;1.12;;;;;;;22.47;86.41;99315.27;1740307;82;21050;-68
2022/06/14 12:16:43;;;;;;;3.22;1.02;;;;;;;22.63;92.29;99307.73;1705877;82;21098;-67
2022/06/14 12:19:15;;;;;;;2.17;0.90;;;;;;;22.85;91.13;99327.06;1742370;81;21038;-69
2022/06/14 12:22:57;;;;;;;5.03;1.10;;;;;;;22.97;90.91;99317.23;1718881;83;21008;-69
2022/06/14 12:27:31;;;;;;;2.35;1.30;;;;;;;22.91;76.74;99315.91;1749783;82;21545;-69
2022/06/14 12:29:57;;;;;;;4.40;1.50;;;;;;;22.70;73.99;99316.83;1723005;82;21054;-70
2022/06/14 12:32:36;;;;;;;2.80;1.35;;;;;;;22.47;74.26;99312.50;1741424;82;21050;-69
2022/06/14 12:35:14;;;;;;;5.85;1.42;;;;;;;22.23;71.98;99327.97;1703312;82;21035;-68
2022/06/14 12:37:51;;;;;;;3.17;1.20;;;;;;;22.13;77.06;99314.65;1759393;81;21136;-69
2022/06/14 12:40:37;;;;;;;3.42;1.17;;;;;;;22.25;80.55;99327.02;1764591;81;21056;-70
2022/06/14 12:43:12;;;;;;;2.67;1.17;;;;;;;22.35;84.89;99326.48;1751722;81;21059;-69
2022/06/14 12:45:52;;;;;;;2.65;1.30;;;;;;;22.45;76.33;99340.38;1736266;81;21072;-69
2022/06/14 12:48:47;;;;;;;2.65;1.02;;;;;;;22.41;76.50;99335.33;1735404;82;21055;-68
2022/06/14 12:51:22;;;;;;;3.77;0.78;;;;;;;22.38;77.34;99337.44;1749875;80;21051;-69
2022/06/14 12:54:24;;;;;;;3.35;1.17;;;;;;;22.29;64.81;99335.64;1763449;81;21047;-71
2022/06/14 12:56:57;;;;;;;4.50;0.95;;;;;;;22.12;67.49;99336.59;1765469;81;21072;-69
2022/06/14 12:59:41;;;;;;;2.17;0.70;;;;;;;22.11;63.60;99326.08;1740499;81;21558;-69